sensor_id;sensor_type;location;lat;lon;timestamp;P1;durP1;ratioP1;P2;durP2;ratioP2
14348;SDS011;7258;50.376;8.742;2022-12-07T00:01:03;24.67;;;20.17;;
14348;SDS011;7258;50.376;8.742;2022-12-07T00:03:07;23.97;;;19.80;;
14348;SDS011;7258;50.376;8.742;2022-12-07T00:05:10;26.60;;;20.30;;
14348;SDS011;7258;50.376;8.742;2022-12-07T00:07:13;23.07;;;19.40;;
14348;SDS011;7258;50.376;8.742;2022-12-07T00:09:16;24.80;;;19.67;;
14348;SDS011;7258;50.376;8.742;2022-12-07T00:11:21;23.53;;;19.43;;
14348;SDS011;7258;50.376;8.742;2022-12-07T00:13:26;24.00;;;20.13;;
14348;SDS011;7258;50.376;8.742;2022-12-07T00:15:28;24.97;;;20.17;;
14348;SDS011;7258;50.376;8.742;2022-12-07T00:17:31;25.70;;;20.33;;
14348;SDS011;7258;50.376;8.742;2022-12-07T00:19:34;25.47;;;20.83;;
14348;SDS011;7258;50.376;8.742;2022-12-07T00:21:37;26.27;;;21.10;;
14348;SDS011;7258;50.376;8.742;2022-12-07T00:23:41;25.00;;;20.10;;
14348;SDS011;7258;50.376;8.742;2022-12-07T00:25:45;24.47;;;19.33;;
14348;SDS011;7258;50.376;8.742;2022-12-07T00:27:51;23.93;;;19.10;;
14348;SDS011;7258;50.376;8.742;2022-12-07T00:29:56;25.60;;;20.20;;
14348;SDS011;7258;50.376;8.742;2022-12-07T00:31:59;27.13;;;20.10;;
14348;SDS011;7258;50.376;8.742;2022-12-07T00:34:02;27.03;;;20.23;;
14348;SDS011;7258;50.376;8.742;2022-12-07T00:36:06;27.37;;;20.77;;
14348;SDS011;7258;50.376;8.742;2022-12-07T00:38:10;26.17;;;20.53;;
14348;SDS011;7258;50.376;8.742;2022-12-07T00:40:13;26.30;;;20.87;;
14348;SDS011;7258;50.376;8.742;2022-12-07T00:42:16;26.20;;;20.40;;
14348;SDS011;7258;50.376;8.742;2022-12-07T00:44:19;28.90;;;21.43;;
14348;SDS011;7258;50.376;8.742;2022-12-07T00:46:24;31.37;;;21.40;;
14348;SDS011;7258;50.376;8.742;2022-12-07T00:48:27;27.40;;;20.80;;
14348;SDS011;7258;50.376;8.742;2022-12-07T00:50:30;27.13;;;21.20;;
14348;SDS011;7258;50.376;8.742;2022-12-07T00:52:33;24.87;;;18.87;;
14348;SDS011;7258;50.376;8.742;2022-12-07T00:54:36;24.27;;;18.87;;
14348;SDS011;7258;50.376;8.742;2022-12-07T00:56:39;25.27;;;19.27;;
14348;SDS011;7258;50.376;8.742;2022-12-07T00:58:42;24.00;;;19.27;;
14348;SDS011;7258;50.376;8.742;2022-12-07T01:00:45;25.20;;;19.10;;
14348;SDS011;7258;50.376;8.742;2022-12-07T01:02:49;24.70;;;19.27;;
14348;SDS011;7258;50.376;8.742;2022-12-07T01:04:52;22.53;;;18.20;;
14348;SDS011;7258;50.376;8.742;2022-12-07T01:06:55;22.17;;;17.73;;
14348;SDS011;7258;50.376;8.742;2022-12-07T01:08:58;22.40;;;17.27;;
14348;SDS011;7258;50.376;8.742;2022-12-07T01:11:03;23.83;;;17.80;;
14348;SDS011;7258;50.376;8.742;2022-12-07T01:13:08;23.50;;;17.03;;
14348;SDS011;7258;50.376;8.742;2022-12-07T01:15:13;23.40;;;17.97;;
14348;SDS011;7258;50.376;8.742;2022-12-07T01:17:16;22.03;;;17.80;;
14348;SDS011;7258;50.376;8.742;2022-12-07T01:19:20;24.53;;;18.83;;
14348;SDS011;7258;50.376;8.742;2022-12-07T01:21:23;20.37;;;16.07;;
14348;SDS011;7258;50.376;8.742;2022-12-07T01:23:29;21.43;;;16.97;;
14348;SDS011;7258;50.376;8.742;2022-12-07T01:25:32;22.23;;;17.53;;
14348;SDS011;7258;50.376;8.742;2022-12-07T01:27:35;19.13;;;15.97;;
14348;SDS011;7258;50.376;8.742;2022-12-07T01:29:38;19.53;;;15.30;;
14348;SDS011;7258;50.376;8.742;2022-12-07T01:31:41;19.87;;;14.67;;
14348;SDS011;7258;50.376;8.742;2022-12-07T01:33:45;19.53;;;15.10;;
14348;SDS011;7258;50.376;8.742;2022-12-07T01:35:51;19.07;;;14.77;;
14348;SDS011;7258;50.376;8.742;2022-12-07T01:37:54;21.17;;;15.20;;
14348;SDS011;7258;50.376;8.742;2022-12-07T01:39:57;18.57;;;14.83;;
14348;SDS011;7258;50.376;8.742;2022-12-07T01:42:02;21.87;;;15.10;;
14348;SDS011;7258;50.376;8.742;2022-12-07T01:44:13;18.33;;;14.77;;
14348;SDS011;7258;50.376;8.742;2022-12-07T01:46:17;19.00;;;14.30;;
14348;SDS011;7258;50.376;8.742;2022-12-07T01:48:20;17.83;;;12.97;;
14348;SDS011;7258;50.376;8.742;2022-12-07T01:50:27;17.30;;;12.47;;
14348;SDS011;7258;50.376;8.742;2022-12-07T01:52:34;13.63;;;12.10;;
14348;SDS011;7258;50.376;8.742;2022-12-07T01:54:39;16.33;;;12.57;;
14348;SDS011;7258;50.376;8.742;2022-12-07T01:56:42;15.30;;;11.37;;
14348;SDS011;7258;50.376;8.742;2022-12-07T01:58:51;16.30;;;12.27;;
14348;SDS011;7258;50.376;8.742;2022-12-07T02:00:55;13.83;;;10.77;;
14348;SDS011;7258;50.376;8.742;2022-12-07T02:03:00;12.53;;;9.17;;
14348;SDS011;7258;50.376;8.742;2022-12-07T02:05:07;11.33;;;9.13;;
14348;SDS011;7258;50.376;8.742;2022-12-07T02:07:09;11.20;;;9.50;;
14348;SDS011;7258;50.376;8.742;2022-12-07T02:09:14;10.73;;;9.10;;
14348;SDS011;7258;50.376;8.742;2022-12-07T02:11:17;9.23;;;8.20;;
14348;SDS011;7258;50.376;8.742;2022-12-07T02:13:21;11.23;;;8.23;;
14348;SDS011;7258;50.376;8.742;2022-12-07T02:15:28;11.27;;;8.93;;
14348;SDS011;7258;50.376;8.742;2022-12-07T02:17:37;9.73;;;8.23;;
14348;SDS011;7258;50.376;8.742;2022-12-07T02:19:53;9.67;;;8.07;;
14348;SDS011;7258;50.376;8.742;2022-12-07T02:22:15;10.60;;;7.63;;
14348;SDS011;7258;50.376;8.742;2022-12-07T02:24:36;10.00;;;8.10;;
14348;SDS011;7258;50.376;8.742;2022-12-07T02:27:13;8.47;;;7.00;;
14348;SDS011;7258;50.376;8.742;2022-12-07T02:29:32;10.63;;;7.60;;
14348;SDS011;7258;50.376;8.742;2022-12-07T02:31:41;8.40;;;6.87;;
14348;SDS011;7258;50.376;8.742;2022-12-07T02:33:49;8.57;;;7.67;;
14348;SDS011;7258;50.376;8.742;2022-12-07T02:35:57;8.27;;;6.73;;
14348;SDS011;7258;50.376;8.742;2022-12-07T02:38:07;9.10;;;7.07;;
14348;SDS011;7258;50.376;8.742;2022-12-07T02:40:16;7.43;;;6.70;;
14348;SDS011;7258;50.376;8.742;2022-12-07T02:42:25;8.40;;;6.87;;
14348;SDS011;7258;50.376;8.742;2022-12-07T02:44:33;10.47;;;7.60;;
14348;SDS011;7258;50.376;8.742;2022-12-07T02:46:37;7.43;;;6.43;;
14348;SDS011;7258;50.376;8.742;2022-12-07T02:48:44;7.70;;;6.90;;
14348;SDS011;7258;50.376;8.742;2022-12-07T02:50:49;8.67;;;6.63;;
14348;SDS011;7258;50.376;8.742;2022-12-07T02:52:52;8.27;;;7.13;;
14348;SDS011;7258;50.376;8.742;2022-12-07T02:54:55;10.03;;;7.20;;
14348;SDS011;7258;50.376;8.742;2022-12-07T02:57:00;7.97;;;6.93;;
14348;SDS011;7258;50.376;8.742;2022-12-07T02:59:11;8.60;;;6.90;;
14348;SDS011;7258;50.376;8.742;2022-12-07T03:01:26;8.83;;;7.30;;
14348;SDS011;7258;50.376;8.742;2022-12-07T03:03:36;7.97;;;7.07;;
14348;SDS011;7258;50.376;8.742;2022-12-07T03:05:48;8.97;;;7.50;;
14348;SDS011;7258;50.376;8.742;2022-12-07T03:08:04;8.27;;;7.10;;
14348;SDS011;7258;50.376;8.742;2022-12-07T03:10:14;9.07;;;7.47;;
14348;SDS011;7258;50.376;8.742;2022-12-07T03:12:24;8.90;;;7.40;;
14348;SDS011;7258;50.376;8.742;2022-12-07T03:14:34;8.33;;;7.17;;
14348;SDS011;7258;50.376;8.742;2022-12-07T03:16:42;9.13;;;7.10;;
14348;SDS011;7258;50.376;8.742;2022-12-07T03:18:52;9.73;;;7.73;;
14348;SDS011;7258;50.376;8.742;2022-12-07T03:21:01;9.07;;;8.00;;
14348;SDS011;7258;50.376;8.742;2022-12-07T03:23:08;9.03;;;8.00;;
14348;SDS011;7258;50.376;8.742;2022-12-07T03:25:14;8.13;;;7.20;;
14348;SDS011;7258;50.376;8.742;2022-12-07T03:27:19;8.40;;;7.60;;
14348;SDS011;7258;50.376;8.742;2022-12-07T03:29:26;9.20;;;8.10;;
14348;SDS011;7258;50.376;8.742;2022-12-07T03:31:31;9.77;;;7.70;;
14348;SDS011;7258;50.376;8.742;2022-12-07T03:33:41;10.47;;;7.47;;
14348;SDS011;7258;50.376;8.742;2022-12-07T03:35:48;9.13;;;8.13;;
14348;SDS011;7258;50.376;8.742;2022-12-07T03:37:58;8.93;;;7.97;;
14348;SDS011;7258;50.376;8.742;2022-12-07T03:40:03;9.57;;;8.57;;
14348;SDS011;7258;50.376;8.742;2022-12-07T03:42:10;9.97;;;8.63;;
14348;SDS011;7258;50.376;8.742;2022-12-07T03:44:13;8.97;;;7.87;;
14348;SDS011;7258;50.376;8.742;2022-12-07T03:46:19;9.80;;;8.80;;
14348;SDS011;7258;50.376;8.742;2022-12-07T03:48:32;10.13;;;8.23;;
14348;SDS011;7258;50.376;8.742;2022-12-07T03:50:42;10.53;;;8.97;;
14348;SDS011;7258;50.376;8.742;2022-12-07T03:52:51;9.50;;;8.50;;
14348;SDS011;7258;50.376;8.742;2022-12-07T03:54:58;9.50;;;8.33;;
14348;SDS011;7258;50.376;8.742;2022-12-07T03:57:04;11.97;;;9.60;;
14348;SDS011;7258;50.376;8.742;2022-12-07T03:59:09;10.97;;;9.47;;
14348;SDS011;7258;50.376;8.742;2022-12-07T04:01:13;10.03;;;8.63;;
14348;SDS011;7258;50.376;8.742;2022-12-07T04:03:16;9.47;;;8.07;;
14348;SDS011;7258;50.376;8.742;2022-12-07T04:05:19;8.97;;;8.03;;
14348;SDS011;7258;50.376;8.742;2022-12-07T04:07:23;9.20;;;8.30;;
14348;SDS011;7258;50.376;8.742;2022-12-07T04:09:26;10.63;;;8.87;;
14348;SDS011;7258;50.376;8.742;2022-12-07T04:11:29;9.77;;;8.40;;
14348;SDS011;7258;50.376;8.742;2022-12-07T04:13:32;9.33;;;8.20;;
14348;SDS011;7258;50.376;8.742;2022-12-07T04:15:55;9.63;;;8.33;;
14348;SDS011;7258;50.376;8.742;2022-12-07T04:17:58;10.93;;;8.50;;
14348;SDS011;7258;50.376;8.742;2022-12-07T04:20:01;10.23;;;8.80;;
14348;SDS011;7258;50.376;8.742;2022-12-07T04:22:06;9.53;;;8.50;;
14348;SDS011;7258;50.376;8.742;2022-12-07T04:24:11;9.90;;;8.87;;
14348;SDS011;7258;50.376;8.742;2022-12-07T04:26:15;9.17;;;8.27;;
14348;SDS011;7258;50.376;8.742;2022-12-07T04:28:17;11.53;;;8.97;;
14348;SDS011;7258;50.376;8.742;2022-12-07T04:30:20;8.93;;;8.03;;
14348;SDS011;7258;50.376;8.742;2022-12-07T04:32:23;10.53;;;9.43;;
14348;SDS011;7258;50.376;8.742;2022-12-07T04:34:26;10.83;;;9.73;;
14348;SDS011;7258;50.376;8.742;2022-12-07T04:36:29;13.90;;;9.30;;
14348;SDS011;7258;50.376;8.742;2022-12-07T04:38:32;11.53;;;9.87;;
14348;SDS011;7258;50.376;8.742;2022-12-07T04:40:37;12.30;;;10.20;;
14348;SDS011;7258;50.376;8.742;2022-12-07T04:42:41;11.30;;;10.10;;
14348;SDS011;7258;50.376;8.742;2022-12-07T04:44:44;12.33;;;10.83;;
14348;SDS011;7258;50.376;8.742;2022-12-07T04:46:47;11.63;;;10.50;;
14348;SDS011;7258;50.376;8.742;2022-12-07T04:48:50;13.03;;;11.17;;
14348;SDS011;7258;50.376;8.742;2022-12-07T04:50:54;12.20;;;10.87;;
14348;SDS011;7258;50.376;8.742;2022-12-07T04:52:56;14.40;;;10.83;;
14348;SDS011;7258;50.376;8.742;2022-12-07T04:54:59;12.07;;;10.57;;
14348;SDS011;7258;50.376;8.742;2022-12-07T04:57:03;12.70;;;11.27;;
14348;SDS011;7258;50.376;8.742;2022-12-07T04:59:06;13.50;;;11.33;;
14348;SDS011;7258;50.376;8.742;2022-12-07T05:01:09;12.27;;;10.50;;
14348;SDS011;7258;50.376;8.742;2022-12-07T05:03:13;13.23;;;11.70;;
14348;SDS011;7258;50.376;8.742;2022-12-07T05:05:15;11.77;;;10.57;;
14348;SDS011;7258;50.376;8.742;2022-12-07T05:07:18;13.30;;;11.07;;
14348;SDS011;7258;50.376;8.742;2022-12-07T05:09:21;12.23;;;10.70;;
14348;SDS011;7258;50.376;8.742;2022-12-07T05:11:24;13.27;;;11.30;;
14348;SDS011;7258;50.376;8.742;2022-12-07T05:13:43;11.93;;;10.70;;
14348;SDS011;7258;50.376;8.742;2022-12-07T05:15:46;12.20;;;10.37;;
14348;SDS011;7258;50.376;8.742;2022-12-07T05:17:49;11.93;;;10.10;;
14348;SDS011;7258;50.376;8.742;2022-12-07T05:19:53;12.90;;;10.53;;
14348;SDS011;7258;50.376;8.742;2022-12-07T05:21:56;12.07;;;10.77;;
14348;SDS011;7258;50.376;8.742;2022-12-07T05:23:59;12.83;;;10.07;;
14348;SDS011;7258;50.376;8.742;2022-12-07T05:26:02;11.97;;;10.27;;
14348;SDS011;7258;50.376;8.742;2022-12-07T05:28:05;11.67;;;10.43;;
14348;SDS011;7258;50.376;8.742;2022-12-07T05:30:10;10.67;;;9.57;;
14348;SDS011;7258;50.376;8.742;2022-12-07T05:32:13;11.07;;;9.97;;
14348;SDS011;7258;50.376;8.742;2022-12-07T05:34:16;12.90;;;10.23;;
14348;SDS011;7258;50.376;8.742;2022-12-07T05:36:19;10.87;;;9.60;;
14348;SDS011;7258;50.376;8.742;2022-12-07T05:38:22;10.90;;;9.77;;
14348;SDS011;7258;50.376;8.742;2022-12-07T05:40:26;11.97;;;10.30;;
14348;SDS011;7258;50.376;8.742;2022-12-07T05:42:28;12.27;;;10.30;;
14348;SDS011;7258;50.376;8.742;2022-12-07T05:44:32;10.87;;;9.77;;
14348;SDS011;7258;50.376;8.742;2022-12-07T05:46:36;13.10;;;11.43;;
14348;SDS011;7258;50.376;8.742;2022-12-07T05:48:39;13.13;;;11.00;;
14348;SDS011;7258;50.376;8.742;2022-12-07T05:50:41;12.57;;;11.30;;
14348;SDS011;7258;50.376;8.742;2022-12-07T05:52:44;12.80;;;11.50;;
14348;SDS011;7258;50.376;8.742;2022-12-07T05:54:47;13.57;;;11.50;;
14348;SDS011;7258;50.376;8.742;2022-12-07T05:56:50;12.80;;;11.43;;
14348;SDS011;7258;50.376;8.742;2022-12-07T05:58:52;13.13;;;11.70;;
14348;SDS011;7258;50.376;8.742;2022-12-07T06:01:13;14.00;;;12.03;;
14348;SDS011;7258;50.376;8.742;2022-12-07T06:03:17;13.93;;;12.40;;
14348;SDS011;7258;50.376;8.742;2022-12-07T06:05:20;17.77;;;12.83;;
14348;SDS011;7258;50.376;8.742;2022-12-07T06:07:23;15.80;;;14.00;;
14348;SDS011;7258;50.376;8.742;2022-12-07T06:09:26;18.93;;;13.23;;
14348;SDS011;7258;50.376;8.742;2022-12-07T06:11:30;15.87;;;13.60;;
14348;SDS011;7258;50.376;8.742;2022-12-07T06:13:50;15.77;;;12.97;;
14348;SDS011;7258;50.376;8.742;2022-12-07T06:15:53;20.73;;;17.83;;
14348;SDS011;7258;50.376;8.742;2022-12-07T06:17:55;16.00;;;12.63;;
14348;SDS011;7258;50.376;8.742;2022-12-07T06:19:59;15.00;;;12.40;;
14348;SDS011;7258;50.376;8.742;2022-12-07T06:22:03;15.43;;;12.00;;
14348;SDS011;7258;50.376;8.742;2022-12-07T06:24:06;14.40;;;12.33;;
14348;SDS011;7258;50.376;8.742;2022-12-07T06:26:09;14.43;;;12.20;;
14348;SDS011;7258;50.376;8.742;2022-12-07T06:28:12;13.03;;;11.23;;
14348;SDS011;7258;50.376;8.742;2022-12-07T06:30:15;12.80;;;11.17;;
14348;SDS011;7258;50.376;8.742;2022-12-07T06:32:19;15.00;;;11.90;;
14348;SDS011;7258;50.376;8.742;2022-12-07T06:34:22;14.60;;;11.80;;
14348;SDS011;7258;50.376;8.742;2022-12-07T06:36:27;16.07;;;11.80;;
14348;SDS011;7258;50.376;8.742;2022-12-07T06:38:30;12.47;;;11.17;;
14348;SDS011;7258;50.376;8.742;2022-12-07T06:40:32;15.30;;;11.87;;
14348;SDS011;7258;50.376;8.742;2022-12-07T06:42:35;12.43;;;10.70;;
14348;SDS011;7258;50.376;8.742;2022-12-07T06:44:38;11.40;;;10.13;;
14348;SDS011;7258;50.376;8.742;2022-12-07T06:46:40;11.67;;;10.43;;
14348;SDS011;7258;50.376;8.742;2022-12-07T06:48:43;11.43;;;10.23;;
14348;SDS011;7258;50.376;8.742;2022-12-07T06:50:48;11.60;;;10.40;;
14348;SDS011;7258;50.376;8.742;2022-12-07T06:52:57;10.97;;;9.80;;
14348;SDS011;7258;50.376;8.742;2022-12-07T06:54:59;12.03;;;10.60;;
14348;SDS011;7258;50.376;8.742;2022-12-07T06:57:02;12.30;;;10.03;;
14348;SDS011;7258;50.376;8.742;2022-12-07T06:59:05;10.03;;;8.93;;
14348;SDS011;7258;50.376;8.742;2022-12-07T07:01:09;10.43;;;9.10;;
14348;SDS011;7258;50.376;8.742;2022-12-07T07:03:12;10.27;;;9.17;;
14348;SDS011;7258;50.376;8.742;2022-12-07T07:05:15;10.30;;;9.13;;
14348;SDS011;7258;50.376;8.742;2022-12-07T07:07:18;9.90;;;8.57;;
14348;SDS011;7258;50.376;8.742;2022-12-07T07:09:22;9.33;;;8.23;;
14348;SDS011;7258;50.376;8.742;2022-12-07T07:11:25;9.80;;;8.57;;
14348;SDS011;7258;50.376;8.742;2022-12-07T07:13:28;10.13;;;9.13;;
14348;SDS011;7258;50.376;8.742;2022-12-07T07:15:31;9.10;;;8.20;;
14348;SDS011;7258;50.376;8.742;2022-12-07T07:17:34;11.63;;;8.00;;
14348;SDS011;7258;50.376;8.742;2022-12-07T07:19:37;8.17;;;7.37;;
14348;SDS011;7258;50.376;8.742;2022-12-07T07:21:40;9.20;;;7.80;;
14348;SDS011;7258;50.376;8.742;2022-12-07T07:23:42;9.03;;;8.13;;
14348;SDS011;7258;50.376;8.742;2022-12-07T07:25:47;9.20;;;8.17;;
14348;SDS011;7258;50.376;8.742;2022-12-07T07:27:50;9.27;;;7.83;;
14348;SDS011;7258;50.376;8.742;2022-12-07T07:29:53;9.30;;;8.40;;
14348;SDS011;7258;50.376;8.742;2022-12-07T07:31:56;9.30;;;8.30;;
14348;SDS011;7258;50.376;8.742;2022-12-07T07:34:06;9.53;;;8.40;;
14348;SDS011;7258;50.376;8.742;2022-12-07T07:36:09;11.67;;;8.80;;
14348;SDS011;7258;50.376;8.742;2022-12-07T07:38:12;10.70;;;8.03;;
14348;SDS011;7258;50.376;8.742;2022-12-07T07:40:15;9.60;;;8.60;;
14348;SDS011;7258;50.376;8.742;2022-12-07T07:42:19;9.97;;;8.97;;
14348;SDS011;7258;50.376;8.742;2022-12-07T07:44:22;9.60;;;8.60;;
14348;SDS011;7258;50.376;8.742;2022-12-07T07:46:24;9.83;;;8.30;;
14348;SDS011;7258;50.376;8.742;2022-12-07T07:48:27;10.30;;;9.17;;
14348;SDS011;7258;50.376;8.742;2022-12-07T07:50:30;10.80;;;8.90;;
14348;SDS011;7258;50.376;8.742;2022-12-07T07:52:33;9.90;;;8.90;;
14348;SDS011;7258;50.376;8.742;2022-12-07T07:54:36;10.03;;;8.90;;
14348;SDS011;7258;50.376;8.742;2022-12-07T07:56:38;10.50;;;9.40;;
14348;SDS011;7258;50.376;8.742;2022-12-07T07:58:43;10.63;;;9.20;;
14348;SDS011;7258;50.376;8.742;2022-12-07T08:00:45;10.67;;;9.03;;
14348;SDS011;7258;50.376;8.742;2022-12-07T08:02:48;10.73;;;9.50;;
14348;SDS011;7258;50.376;8.742;2022-12-07T08:04:51;10.57;;;9.47;;
14348;SDS011;7258;50.376;8.742;2022-12-07T08:06:54;10.60;;;9.50;;
14348;SDS011;7258;50.376;8.742;2022-12-07T08:08:58;10.73;;;9.20;;
14348;SDS011;7258;50.376;8.742;2022-12-07T08:11:04;11.17;;;9.97;;
14348;SDS011;7258;50.376;8.742;2022-12-07T08:13:07;11.67;;;10.47;;
14348;SDS011;7258;50.376;8.742;2022-12-07T08:15:14;12.37;;;10.13;;
14348;SDS011;7258;50.376;8.742;2022-12-07T08:17:17;10.77;;;9.67;;
14348;SDS011;7258;50.376;8.742;2022-12-07T08:19:20;10.40;;;9.23;;
14348;SDS011;7258;50.376;8.742;2022-12-07T08:21:23;10.67;;;9.53;;
14348;SDS011;7258;50.376;8.742;2022-12-07T08:23:25;10.70;;;9.50;;
14348;SDS011;7258;50.376;8.742;2022-12-07T08:25:39;9.83;;;8.83;;
14348;SDS011;7258;50.376;8.742;2022-12-07T08:27:43;11.03;;;9.40;;
14348;SDS011;7258;50.376;8.742;2022-12-07T08:29:45;12.37;;;9.97;;
14348;SDS011;7258;50.376;8.742;2022-12-07T08:31:50;10.60;;;9.50;;
14348;SDS011;7258;50.376;8.742;2022-12-07T08:33:53;11.03;;;9.40;;
14348;SDS011;7258;50.376;8.742;2022-12-07T08:35:59;9.43;;;8.53;;
14348;SDS011;7258;50.376;8.742;2022-12-07T08:38:03;11.37;;;9.50;;
14348;SDS011;7258;50.376;8.742;2022-12-07T08:40:06;10.57;;;8.73;;
14348;SDS011;7258;50.376;8.742;2022-12-07T08:42:11;10.60;;;9.43;;
14348;SDS011;7258;50.376;8.742;2022-12-07T08:44:13;10.93;;;8.87;;
14348;SDS011;7258;50.376;8.742;2022-12-07T08:46:17;11.10;;;8.93;;
14348;SDS011;7258;50.376;8.742;2022-12-07T08:48:27;12.57;;;9.00;;
14348;SDS011;7258;50.376;8.742;2022-12-07T08:50:30;9.80;;;8.80;;
14348;SDS011;7258;50.376;8.742;2022-12-07T08:52:34;9.83;;;8.10;;
14348;SDS011;7258;50.376;8.742;2022-12-07T08:54:38;10.27;;;8.70;;
14348;SDS011;7258;50.376;8.742;2022-12-07T08:56:42;9.63;;;8.50;;
14348;SDS011;7258;50.376;8.742;2022-12-07T08:58:46;8.17;;;7.37;;
14348;SDS011;7258;50.376;8.742;2022-12-07T09:00:49;9.30;;;7.80;;
14348;SDS011;7258;50.376;8.742;2022-12-07T09:02:52;8.13;;;7.33;;
14348;SDS011;7258;50.376;8.742;2022-12-07T09:04:57;9.03;;;7.87;;
14348;SDS011;7258;50.376;8.742;2022-12-07T09:07:00;8.73;;;7.47;;
14348;SDS011;7258;50.376;8.742;2022-12-07T09:09:03;8.80;;;7.50;;
14348;SDS011;7258;50.376;8.742;2022-12-07T09:11:06;7.97;;;6.40;;
14348;SDS011;7258;50.376;8.742;2022-12-07T09:13:09;7.90;;;6.47;;
14348;SDS011;7258;50.376;8.742;2022-12-07T09:15:11;8.37;;;6.70;;
14348;SDS011;7258;50.376;8.742;2022-12-07T09:17:15;7.87;;;6.50;;
14348;SDS011;7258;50.376;8.742;2022-12-07T09:19:17;6.27;;;5.70;;
14348;SDS011;7258;50.376;8.742;2022-12-07T09:21:22;9.40;;;6.10;;
14348;SDS011;7258;50.376;8.742;2022-12-07T09:23:25;6.43;;;5.60;;
14348;SDS011;7258;50.376;8.742;2022-12-07T09:25:28;6.13;;;5.30;;
14348;SDS011;7258;50.376;8.742;2022-12-07T09:27:30;8.47;;;5.20;;
14348;SDS011;7258;50.376;8.742;2022-12-07T09:29:33;8.47;;;6.10;;
14348;SDS011;7258;50.376;8.742;2022-12-07T09:31:36;5.80;;;5.20;;
14348;SDS011;7258;50.376;8.742;2022-12-07T09:33:39;7.37;;;5.80;;
14348;SDS011;7258;50.376;8.742;2022-12-07T09:35:44;6.33;;;4.83;;
14348;SDS011;7258;50.376;8.742;2022-12-07T09:37:48;7.70;;;4.73;;
14348;SDS011;7258;50.376;8.742;2022-12-07T09:39:51;11.23;;;5.63;;
14348;SDS011;7258;50.376;8.742;2022-12-07T09:41:56;5.80;;;5.20;;
14348;SDS011;7258;50.376;8.742;2022-12-07T09:44:02;6.57;;;4.93;;
14348;SDS011;7258;50.376;8.742;2022-12-07T09:46:09;8.67;;;4.90;;
14348;SDS011;7258;50.376;8.742;2022-12-07T09:48:18;10.27;;;5.30;;
14348;SDS011;7258;50.376;8.742;2022-12-07T09:50:26;7.90;;;4.70;;
14348;SDS011;7258;50.376;8.742;2022-12-07T09:52:29;4.80;;;4.30;;
14348;SDS011;7258;50.376;8.742;2022-12-07T09:54:41;5.03;;;4.30;;
14348;SDS011;7258;50.376;8.742;2022-12-07T09:56:47;5.10;;;3.77;;
14348;SDS011;7258;50.376;8.742;2022-12-07T09:58:51;6.67;;;4.10;;
14348;SDS011;7258;50.376;8.742;2022-12-07T10:01:01;7.13;;;4.30;;
14348;SDS011;7258;50.376;8.742;2022-12-07T10:03:11;5.40;;;3.87;;
14348;SDS011;7258;50.376;8.742;2022-12-07T10:05:15;4.83;;;3.50;;
14348;SDS011;7258;50.376;8.742;2022-12-07T10:07:25;6.57;;;3.40;;
14348;SDS011;7258;50.376;8.742;2022-12-07T10:09:27;6.20;;;3.47;;
14348;SDS011;7258;50.376;8.742;2022-12-07T10:11:44;5.80;;;3.73;;
14348;SDS011;7258;50.376;8.742;2022-12-07T10:14:10;5.83;;;3.40;;
14348;SDS011;7258;50.376;8.742;2022-12-07T10:16:27;4.53;;;3.30;;
14348;SDS011;7258;50.376;8.742;2022-12-07T10:18:43;4.33;;;3.10;;
14348;SDS011;7258;50.376;8.742;2022-12-07T10:20:46;5.80;;;3.87;;
14348;SDS011;7258;50.376;8.742;2022-12-07T10:22:53;6.27;;;3.47;;
14348;SDS011;7258;50.376;8.742;2022-12-07T10:24:57;5.27;;;3.90;;
14348;SDS011;7258;50.376;8.742;2022-12-07T10:27:18;5.30;;;4.00;;
14348;SDS011;7258;50.376;8.742;2022-12-07T10:29:33;7.70;;;4.70;;
14348;SDS011;7258;50.376;8.742;2022-12-07T10:31:39;4.90;;;4.07;;
14348;SDS011;7258;50.376;8.742;2022-12-07T10:33:48;6.80;;;4.57;;
14348;SDS011;7258;50.376;8.742;2022-12-07T10:35:52;7.03;;;4.60;;
14348;SDS011;7258;50.376;8.742;2022-12-07T10:37:56;5.10;;;4.47;;
14348;SDS011;7258;50.376;8.742;2022-12-07T10:40:00;7.90;;;4.90;;
14348;SDS011;7258;50.376;8.742;2022-12-07T10:42:03;4.57;;;4.17;;
14348;SDS011;7258;50.376;8.742;2022-12-07T10:44:08;7.40;;;4.87;;
14348;SDS011;7258;50.376;8.742;2022-12-07T10:49:02;7.33;;;4.83;;
14348;SDS011;7258;50.376;8.742;2022-12-07T10:51:22;9.77;;;5.33;;
14348;SDS011;7258;50.376;8.742;2022-12-07T10:53:41;5.13;;;3.97;;
14348;SDS011;7258;50.376;8.742;2022-12-07T10:56:09;4.80;;;4.10;;
14348;SDS011;7258;50.376;8.742;2022-12-07T10:58:31;5.73;;;3.93;;
14348;SDS011;7258;50.376;8.742;2022-12-07T11:00:50;9.03;;;4.30;;
14348;SDS011;7258;50.376;8.742;2022-12-07T11:05:34;4.50;;;3.60;;
14348;SDS011;7258;50.376;8.742;2022-12-07T11:07:47;4.93;;;3.30;;
14348;SDS011;7258;50.376;8.742;2022-12-07T11:10:02;4.50;;;3.47;;
14348;SDS011;7258;50.376;8.742;2022-12-07T11:12:12;7.17;;;3.77;;
14348;SDS011;7258;50.376;8.742;2022-12-07T11:14:23;5.13;;;3.70;;
14348;SDS011;7258;50.376;8.742;2022-12-07T11:16:41;6.00;;;3.77;;
14348;SDS011;7258;50.376;8.742;2022-12-07T11:18:56;5.23;;;3.70;;
14348;SDS011;7258;50.376;8.742;2022-12-07T11:21:09;4.03;;;3.30;;
14348;SDS011;7258;50.376;8.742;2022-12-07T11:23:21;6.57;;;3.87;;
14348;SDS011;7258;50.376;8.742;2022-12-07T11:25:35;6.87;;;3.63;;
14348;SDS011;7258;50.376;8.742;2022-12-07T11:27:46;7.03;;;3.90;;
14348;SDS011;7258;50.376;8.742;2022-12-07T11:30:01;5.83;;;3.57;;
14348;SDS011;7258;50.376;8.742;2022-12-07T11:32:17;5.97;;;3.70;;
14348;SDS011;7258;50.376;8.742;2022-12-07T11:34:25;5.27;;;3.47;;
14348;SDS011;7258;50.376;8.742;2022-12-07T11:36:39;8.17;;;4.30;;
14348;SDS011;7258;50.376;8.742;2022-12-07T11:38:45;5.57;;;4.23;;
14348;SDS011;7258;50.376;8.742;2022-12-07T11:40:53;7.17;;;4.77;;
14348;SDS011;7258;50.376;8.742;2022-12-07T11:43:15;7.47;;;3.87;;
14348;SDS011;7258;50.376;8.742;2022-12-07T11:45:24;6.37;;;3.90;;
14348;SDS011;7258;50.376;8.742;2022-12-07T11:47:34;7.40;;;3.80;;
14348;SDS011;7258;50.376;8.742;2022-12-07T11:49:44;5.60;;;3.80;;
14348;SDS011;7258;50.376;8.742;2022-12-07T11:51:54;5.47;;;3.47;;
14348;SDS011;7258;50.376;8.742;2022-12-07T11:54:05;6.50;;;3.47;;
14348;SDS011;7258;50.376;8.742;2022-12-07T11:56:15;4.37;;;3.17;;
14348;SDS011;7258;50.376;8.742;2022-12-07T11:58:25;4.90;;;3.50;;
14348;SDS011;7258;50.376;8.742;2022-12-07T12:00:40;5.77;;;4.37;;
14348;SDS011;7258;50.376;8.742;2022-12-07T12:02:46;5.27;;;4.10;;
14348;SDS011;7258;50.376;8.742;2022-12-07T12:04:56;6.63;;;4.50;;
14348;SDS011;7258;50.376;8.742;2022-12-07T12:07:05;7.23;;;4.43;;
14348;SDS011;7258;50.376;8.742;2022-12-07T12:09:29;7.27;;;4.53;;
14348;SDS011;7258;50.376;8.742;2022-12-07T12:11:42;6.07;;;4.80;;
14348;SDS011;7258;50.376;8.742;2022-12-07T12:14:20;7.10;;;4.00;;
14348;SDS011;7258;50.376;8.742;2022-12-07T12:16:54;7.40;;;4.33;;
14348;SDS011;7258;50.376;8.742;2022-12-07T12:19:27;6.40;;;4.50;;
14348;SDS011;7258;50.376;8.742;2022-12-07T12:21:36;5.87;;;4.03;;
14348;SDS011;7258;50.376;8.742;2022-12-07T12:23:40;5.27;;;3.67;;
14348;SDS011;7258;50.376;8.742;2022-12-07T12:25:45;6.17;;;3.97;;
14348;SDS011;7258;50.376;8.742;2022-12-07T12:27:51;8.40;;;3.50;;
14348;SDS011;7258;50.376;8.742;2022-12-07T12:29:57;5.10;;;3.30;;
14348;SDS011;7258;50.376;8.742;2022-12-07T12:34:31;6.87;;;2.97;;
14348;SDS011;7258;50.376;8.742;2022-12-07T12:36:45;6.63;;;2.67;;
14348;SDS011;7258;50.376;8.742;2022-12-07T12:38:49;5.03;;;2.30;;
14348;SDS011;7258;50.376;8.742;2022-12-07T12:40:54;3.37;;;2.27;;
14348;SDS011;7258;50.376;8.742;2022-12-07T12:42:58;3.77;;;2.20;;
14348;SDS011;7258;50.376;8.742;2022-12-07T12:50:16;3.70;;;2.30;;
14348;SDS011;7258;50.376;8.742;2022-12-07T12:55:00;5.30;;;2.47;;
14348;SDS011;7258;50.376;8.742;2022-12-07T12:57:15;5.03;;;3.23;;
14348;SDS011;7258;50.376;8.742;2022-12-07T12:59:26;6.43;;;2.80;;